sensor_id;sensor_type;location;lat;lon;timestamp;P1;durP1;ratioP1;P2;durP2;ratioP2
1751;SDS011;873;47.696;8.068;2023-06-22T00:00:00;1.30;;;0.90;;
1751;SDS011;873;47.696;8.068;2023-06-22T00:02:25;1.37;;;1.10;;
1751;SDS011;873;47.696;8.068;2023-06-22T00:04:51;1.73;;;1.20;;
1751;SDS011;873;47.696;8.068;2023-06-22T00:07:17;1.97;;;1.10;;
1751;SDS011;873;47.696;8.068;2023-06-22T00:09:42;1.57;;;1.27;;
1751;SDS011;873;47.696;8.068;2023-06-22T00:12:08;1.57;;;1.20;;
1751;SDS011;873;47.696;8.068;2023-06-22T00:14:33;0.80;;;0.80;;
1751;SDS011;873;47.696;8.068;2023-06-22T00:16:59;3.23;;;1.23;;
1751;SDS011;873;47.696;8.068;2023-06-22T00:19:26;1.13;;;1.03;;
1751;SDS011;873;47.696;8.068;2023-06-22T00:21:51;1.57;;;1.10;;
1751;SDS011;873;47.696;8.068;2023-06-22T00:24:19;1.93;;;0.93;;
1751;SDS011;873;47.696;8.068;2023-06-22T00:26:45;1.77;;;1.10;;
1751;SDS011;873;47.696;8.068;2023-06-22T00:29:11;1.40;;;1.10;;
1751;SDS011;873;47.696;8.068;2023-06-22T00:31:36;1.50;;;1.00;;
1751;SDS011;873;47.696;8.068;2023-06-22T00:34:02;2.80;;;1.27;;
1751;SDS011;873;47.696;8.068;2023-06-22T00:36:27;1.50;;;1.03;;
1751;SDS011;873;47.696;8.068;2023-06-22T00:38:53;2.60;;;1.20;;
1751;SDS011;873;47.696;8.068;2023-06-22T00:41:18;3.53;;;1.00;;
1751;SDS011;873;47.696;8.068;2023-06-22T00:43:44;2.03;;;0.73;;
1751;SDS011;873;47.696;8.068;2023-06-22T00:46:10;1.43;;;1.03;;
1751;SDS011;873;47.696;8.068;2023-06-22T00:48:36;1.00;;;0.80;;
1751;SDS011;873;47.696;8.068;2023-06-22T00:51:02;1.07;;;0.90;;
1751;SDS011;873;47.696;8.068;2023-06-22T00:53:28;1.77;;;1.03;;
1751;SDS011;873;47.696;8.068;2023-06-22T00:55:53;1.77;;;0.90;;
1751;SDS011;873;47.696;8.068;2023-06-22T00:58:19;2.93;;;1.00;;
1751;SDS011;873;47.696;8.068;2023-06-22T01:00:47;1.80;;;1.10;;
1751;SDS011;873;47.696;8.068;2023-06-22T01:03:12;8.03;;;1.13;;
1751;SDS011;873;47.696;8.068;2023-06-22T01:05:39;2.87;;;1.10;;
1751;SDS011;873;47.696;8.068;2023-06-22T01:10:50;1.97;;;1.20;;
1751;SDS011;873;47.696;8.068;2023-06-22T01:16:01;1.73;;;1.03;;
1751;SDS011;873;47.696;8.068;2023-06-22T01:18:29;1.47;;;1.00;;
1751;SDS011;873;47.696;8.068;2023-06-22T01:20:57;3.07;;;1.13;;
1751;SDS011;873;47.696;8.068;2023-06-22T01:23:27;1.47;;;1.07;;
1751;SDS011;873;47.696;8.068;2023-06-22T01:28:50;2.80;;;1.00;;
1751;SDS011;873;47.696;8.068;2023-06-22T01:31:19;1.07;;;0.63;;
1751;SDS011;873;47.696;8.068;2023-06-22T01:33:54;1.73;;;1.00;;
1751;SDS011;873;47.696;8.068;2023-06-22T01:36:21;3.17;;;1.57;;
1751;SDS011;873;47.696;8.068;2023-06-22T01:38:48;1.43;;;0.80;;
1751;SDS011;873;47.696;8.068;2023-06-22T01:41:14;1.03;;;0.83;;
1751;SDS011;873;47.696;8.068;2023-06-22T01:43:41;1.03;;;0.90;;
1751;SDS011;873;47.696;8.068;2023-06-22T01:46:07;2.23;;;0.87;;
1751;SDS011;873;47.696;8.068;2023-06-22T01:48:33;2.17;;;1.00;;
1751;SDS011;873;47.696;8.068;2023-06-22T01:50:59;1.53;;;1.10;;
1751;SDS011;873;47.696;8.068;2023-06-22T01:53:24;1.83;;;1.10;;
1751;SDS011;873;47.696;8.068;2023-06-22T01:55:50;2.13;;;1.00;;
1751;SDS011;873;47.696;8.068;2023-06-22T01:58:16;1.00;;;0.83;;
1751;SDS011;873;47.696;8.068;2023-06-22T02:00:44;1.63;;;1.03;;
1751;SDS011;873;47.696;8.068;2023-06-22T02:03:16;1.57;;;1.10;;
1751;SDS011;873;47.696;8.068;2023-06-22T02:05:52;1.97;;;1.00;;
1751;SDS011;873;47.696;8.068;2023-06-22T02:08:22;2.83;;;1.40;;
1751;SDS011;873;47.696;8.068;2023-06-22T02:10:50;2.30;;;1.17;;
1751;SDS011;873;47.696;8.068;2023-06-22T02:13:16;2.60;;;1.40;;
1751;SDS011;873;47.696;8.068;2023-06-22T02:15:42;1.47;;;1.00;;
1751;SDS011;873;47.696;8.068;2023-06-22T02:18:08;3.27;;;0.90;;
1751;SDS011;873;47.696;8.068;2023-06-22T02:20:36;1.40;;;1.00;;
1751;SDS011;873;47.696;8.068;2023-06-22T02:23:02;1.87;;;1.07;;
1751;SDS011;873;47.696;8.068;2023-06-22T02:25:27;3.60;;;1.03;;
1751;SDS011;873;47.696;8.068;2023-06-22T02:27:53;1.63;;;1.03;;
1751;SDS011;873;47.696;8.068;2023-06-22T02:30:19;1.70;;;1.03;;
1751;SDS011;873;47.696;8.068;2023-06-22T02:32:44;1.37;;;1.13;;
1751;SDS011;873;47.696;8.068;2023-06-22T02:35:10;2.10;;;1.13;;
1751;SDS011;873;47.696;8.068;2023-06-22T02:37:37;4.17;;;1.40;;
1751;SDS011;873;47.696;8.068;2023-06-22T02:40:06;2.90;;;1.10;;
1751;SDS011;873;47.696;8.068;2023-06-22T02:42:34;2.07;;;1.00;;
1751;SDS011;873;47.696;8.068;2023-06-22T02:45:00;2.00;;;1.00;;
1751;SDS011;873;47.696;8.068;2023-06-22T02:47:26;5.20;;;1.20;;
1751;SDS011;873;47.696;8.068;2023-06-22T02:49:52;1.37;;;1.00;;
1751;SDS011;873;47.696;8.068;2023-06-22T02:52:17;6.80;;;1.40;;
1751;SDS011;873;47.696;8.068;2023-06-22T02:54:43;2.63;;;1.60;;
1751;SDS011;873;47.696;8.068;2023-06-22T02:57:11;3.60;;;1.27;;
1751;SDS011;873;47.696;8.068;2023-06-22T02:59:40;1.87;;;1.37;;
1751;SDS011;873;47.696;8.068;2023-06-22T03:02:07;1.47;;;1.00;;
1751;SDS011;873;47.696;8.068;2023-06-22T03:04:34;1.50;;;1.13;;
1751;SDS011;873;47.696;8.068;2023-06-22T03:07:00;2.83;;;1.20;;
1751;SDS011;873;47.696;8.068;2023-06-22T03:09:26;1.47;;;1.07;;
1751;SDS011;873;47.696;8.068;2023-06-22T03:11:53;2.57;;;1.30;;
1751;SDS011;873;47.696;8.068;2023-06-22T03:14:20;4.27;;;1.40;;
1751;SDS011;873;47.696;8.068;2023-06-22T03:16:45;2.53;;;1.20;;
1751;SDS011;873;47.696;8.068;2023-06-22T03:19:11;2.87;;;1.30;;
1751;SDS011;873;47.696;8.068;2023-06-22T03:21:37;1.47;;;1.00;;
1751;SDS011;873;47.696;8.068;2023-06-22T03:24:04;4.40;;;1.27;;
1751;SDS011;873;47.696;8.068;2023-06-22T03:26:30;1.37;;;0.93;;
1751;SDS011;873;47.696;8.068;2023-06-22T03:28:55;3.03;;;1.17;;
1751;SDS011;873;47.696;8.068;2023-06-22T03:31:21;2.03;;;1.50;;
1751;SDS011;873;47.696;8.068;2023-06-22T03:33:48;2.27;;;1.63;;
1751;SDS011;873;47.696;8.068;2023-06-22T03:36:14;2.67;;;2.00;;
1751;SDS011;873;47.696;8.068;2023-06-22T03:38:44;2.93;;;2.47;;
1751;SDS011;873;47.696;8.068;2023-06-22T03:41:10;1.63;;;1.50;;
1751;SDS011;873;47.696;8.068;2023-06-22T03:43:36;2.37;;;1.40;;
1751;SDS011;873;47.696;8.068;2023-06-22T03:46:02;2.83;;;2.50;;
1751;SDS011;873;47.696;8.068;2023-06-22T03:48:27;3.47;;;2.33;;
1751;SDS011;873;47.696;8.068;2023-06-22T03:50:53;3.90;;;2.60;;
1751;SDS011;873;47.696;8.068;2023-06-22T03:53:18;2.13;;;1.70;;
1751;SDS011;873;47.696;8.068;2023-06-22T03:55:48;2.90;;;2.53;;
1751;SDS011;873;47.696;8.068;2023-06-22T03:58:15;2.50;;;2.27;;
1751;SDS011;873;47.696;8.068;2023-06-22T04:00:41;1.37;;;1.00;;
1751;SDS011;873;47.696;8.068;2023-06-22T04:03:06;1.13;;;1.03;;
1751;SDS011;873;47.696;8.068;2023-06-22T04:05:32;2.83;;;1.40;;
1751;SDS011;873;47.696;8.068;2023-06-22T04:07:58;2.83;;;1.30;;
1751;SDS011;873;47.696;8.068;2023-06-22T04:10:23;2.17;;;1.40;;
1751;SDS011;873;47.696;8.068;2023-06-22T04:12:49;1.53;;;1.10;;
1751;SDS011;873;47.696;8.068;2023-06-22T04:15:14;1.57;;;1.10;;
1751;SDS011;873;47.696;8.068;2023-06-22T04:17:40;4.33;;;1.50;;
1751;SDS011;873;47.696;8.068;2023-06-22T04:20:06;2.70;;;1.47;;
1751;SDS011;873;47.696;8.068;2023-06-22T04:22:34;2.70;;;1.23;;
1751;SDS011;873;47.696;8.068;2023-06-22T04:25:00;2.40;;;1.37;;
1751;SDS011;873;47.696;8.068;2023-06-22T04:27:26;2.67;;;1.73;;
1751;SDS011;873;47.696;8.068;2023-06-22T04:29:52;2.97;;;1.50;;
1751;SDS011;873;47.696;8.068;2023-06-22T04:32:18;3.33;;;1.60;;
1751;SDS011;873;47.696;8.068;2023-06-22T04:34:43;1.50;;;1.00;;
1751;SDS011;873;47.696;8.068;2023-06-22T04:37:09;2.73;;;1.60;;
1751;SDS011;873;47.696;8.068;2023-06-22T04:39:38;1.67;;;1.37;;
1751;SDS011;873;47.696;8.068;2023-06-22T04:42:04;2.90;;;1.63;;
1751;SDS011;873;47.696;8.068;2023-06-22T04:44:29;3.27;;;1.50;;
1751;SDS011;873;47.696;8.068;2023-06-22T04:46:56;2.70;;;1.17;;
1751;SDS011;873;47.696;8.068;2023-06-22T04:49:28;3.90;;;1.07;;
1751;SDS011;873;47.696;8.068;2023-06-22T04:51:58;3.83;;;1.20;;
1751;SDS011;873;47.696;8.068;2023-06-22T04:54:24;2.90;;;1.37;;
1751;SDS011;873;47.696;8.068;2023-06-22T04:56:50;2.87;;;1.07;;
1751;SDS011;873;47.696;8.068;2023-06-22T04:59:22;4.97;;;1.80;;
1751;SDS011;873;47.696;8.068;2023-06-22T05:01:53;5.30;;;1.20;;
1751;SDS011;873;47.696;8.068;2023-06-22T05:04:19;1.83;;;1.60;;
1751;SDS011;873;47.696;8.068;2023-06-22T05:06:45;3.40;;;1.13;;
1751;SDS011;873;47.696;8.068;2023-06-22T05:09:10;2.13;;;1.70;;
1751;SDS011;873;47.696;8.068;2023-06-22T05:11:37;1.03;;;0.93;;
1751;SDS011;873;47.696;8.068;2023-06-22T05:14:03;1.77;;;1.03;;
1751;SDS011;873;47.696;8.068;2023-06-22T05:16:28;1.70;;;1.03;;
1751;SDS011;873;47.696;8.068;2023-06-22T05:18:54;2.63;;;1.53;;
1751;SDS011;873;47.696;8.068;2023-06-22T05:21:21;1.57;;;1.13;;
1751;SDS011;873;47.696;8.068;2023-06-22T05:23:48;2.60;;;1.10;;
1751;SDS011;873;47.696;8.068;2023-06-22T05:26:14;1.57;;;1.10;;
1751;SDS011;873;47.696;8.068;2023-06-22T05:28:39;1.93;;;1.20;;
1751;SDS011;873;47.696;8.068;2023-06-22T05:31:05;2.80;;;1.13;;
1751;SDS011;873;47.696;8.068;2023-06-22T05:33:30;2.00;;;1.20;;
1751;SDS011;873;47.696;8.068;2023-06-22T05:35:56;2.20;;;1.00;;
1751;SDS011;873;47.696;8.068;2023-06-22T05:38:21;3.67;;;1.20;;
1751;SDS011;873;47.696;8.068;2023-06-22T05:40:47;2.30;;;1.03;;
1751;SDS011;873;47.696;8.068;2023-06-22T05:43:12;2.57;;;1.23;;
1751;SDS011;873;47.696;8.068;2023-06-22T05:45:39;2.07;;;1.13;;
1751;SDS011;873;47.696;8.068;2023-06-22T05:48:04;3.00;;;1.40;;
1751;SDS011;873;47.696;8.068;2023-06-22T05:50:30;1.63;;;1.13;;
1751;SDS011;873;47.696;8.068;2023-06-22T05:52:56;2.30;;;1.37;;
1751;SDS011;873;47.696;8.068;2023-06-22T05:55:21;1.03;;;0.93;;
1751;SDS011;873;47.696;8.068;2023-06-22T05:57:47;2.43;;;1.23;;
1751;SDS011;873;47.696;8.068;2023-06-22T06:00:13;2.07;;;1.40;;
1751;SDS011;873;47.696;8.068;2023-06-22T06:02:40;1.80;;;1.00;;
1751;SDS011;873;47.696;8.068;2023-06-22T06:05:10;1.50;;;1.10;;
1751;SDS011;873;47.696;8.068;2023-06-22T06:07:39;1.77;;;1.20;;
1751;SDS011;873;47.696;8.068;2023-06-22T06:10:05;1.53;;;1.13;;
1751;SDS011;873;47.696;8.068;2023-06-22T06:12:31;2.77;;;1.00;;
1751;SDS011;873;47.696;8.068;2023-06-22T06:14:57;1.30;;;1.20;;
1751;SDS011;873;47.696;8.068;2023-06-22T06:17:22;1.47;;;1.30;;
1751;SDS011;873;47.696;8.068;2023-06-22T06:19:48;2.83;;;1.43;;
1751;SDS011;873;47.696;8.068;2023-06-22T06:22:14;1.43;;;1.10;;
1751;SDS011;873;47.696;8.068;2023-06-22T06:24:39;2.10;;;1.30;;
1751;SDS011;873;47.696;8.068;2023-06-22T06:27:05;1.30;;;1.07;;
1751;SDS011;873;47.696;8.068;2023-06-22T06:29:31;1.70;;;1.17;;
1751;SDS011;873;47.696;8.068;2023-06-22T06:31:57;1.33;;;1.13;;
1751;SDS011;873;47.696;8.068;2023-06-22T06:34:22;3.63;;;1.70;;
1751;SDS011;873;47.696;8.068;2023-06-22T06:36:48;2.93;;;1.50;;
1751;SDS011;873;47.696;8.068;2023-06-22T06:39:13;2.70;;;1.40;;
1751;SDS011;873;47.696;8.068;2023-06-22T06:41:41;1.80;;;1.30;;
1751;SDS011;873;47.696;8.068;2023-06-22T06:44:06;1.87;;;1.57;;
1751;SDS011;873;47.696;8.068;2023-06-22T06:46:32;2.27;;;1.47;;
1751;SDS011;873;47.696;8.068;2023-06-22T06:48:57;1.53;;;1.17;;
1751;SDS011;873;47.696;8.068;2023-06-22T06:51:23;3.77;;;1.27;;
1751;SDS011;873;47.696;8.068;2023-06-22T06:53:49;1.30;;;1.20;;
1751;SDS011;873;47.696;8.068;2023-06-22T06:56:14;1.50;;;1.17;;
1751;SDS011;873;47.696;8.068;2023-06-22T06:58:41;1.40;;;1.23;;
1751;SDS011;873;47.696;8.068;2023-06-22T07:01:07;1.53;;;1.40;;
1751;SDS011;873;47.696;8.068;2023-06-22T07:03:33;1.37;;;1.27;;
1751;SDS011;873;47.696;8.068;2023-06-22T07:05:59;1.77;;;1.17;;
1751;SDS011;873;47.696;8.068;2023-06-22T07:08:25;1.40;;;1.03;;
1751;SDS011;873;47.696;8.068;2023-06-22T07:10:52;2.10;;;1.30;;
1751;SDS011;873;47.696;8.068;2023-06-22T07:13:17;1.53;;;1.07;;
1751;SDS011;873;47.696;8.068;2023-06-22T07:15:43;1.93;;;1.03;;
1751;SDS011;873;47.696;8.068;2023-06-22T07:18:09;2.00;;;1.17;;
1751;SDS011;873;47.696;8.068;2023-06-22T07:20:34;1.90;;;1.03;;
1751;SDS011;873;47.696;8.068;2023-06-22T07:23:00;1.53;;;1.23;;
1751;SDS011;873;47.696;8.068;2023-06-22T07:25:26;1.33;;;1.23;;
1751;SDS011;873;47.696;8.068;2023-06-22T07:30:35;1.90;;;1.30;;
1751;SDS011;873;47.696;8.068;2023-06-22T07:33:01;1.83;;;1.30;;
1751;SDS011;873;47.696;8.068;2023-06-22T07:35:30;2.80;;;1.20;;
1751;SDS011;873;47.696;8.068;2023-06-22T07:37:56;1.27;;;1.10;;
1751;SDS011;873;47.696;8.068;2023-06-22T07:40:21;1.80;;;1.13;;
1751;SDS011;873;47.696;8.068;2023-06-22T07:42:47;1.47;;;1.10;;
1751;SDS011;873;47.696;8.068;2023-06-22T07:45:16;2.33;;;1.17;;
1751;SDS011;873;47.696;8.068;2023-06-22T07:47:42;1.90;;;1.20;;
1751;SDS011;873;47.696;8.068;2023-06-22T07:50:07;1.80;;;1.07;;
1751;SDS011;873;47.696;8.068;2023-06-22T07:52:33;1.50;;;1.40;;
1751;SDS011;873;47.696;8.068;2023-06-22T07:54:59;1.93;;;1.20;;
1751;SDS011;873;47.696;8.068;2023-06-22T07:57:24;1.40;;;1.00;;
1751;SDS011;873;47.696;8.068;2023-06-22T07:59:57;1.63;;;1.17;;
1751;SDS011;873;47.696;8.068;2023-06-22T08:02:24;1.47;;;1.00;;
1751;SDS011;873;47.696;8.068;2023-06-22T08:04:49;3.73;;;1.10;;
1751;SDS011;873;47.696;8.068;2023-06-22T08:07:15;1.60;;;1.20;;
1751;SDS011;873;47.696;8.068;2023-06-22T08:09:42;1.97;;;1.30;;
1751;SDS011;873;47.696;8.068;2023-06-22T08:12:12;3.87;;;1.40;;
1751;SDS011;873;47.696;8.068;2023-06-22T08:14:38;1.27;;;0.97;;
1751;SDS011;873;47.696;8.068;2023-06-22T08:17:04;2.90;;;1.40;;
1751;SDS011;873;47.696;8.068;2023-06-22T08:19:30;5.00;;;1.33;;
1751;SDS011;873;47.696;8.068;2023-06-22T08:21:56;2.67;;;1.20;;
1751;SDS011;873;47.696;8.068;2023-06-22T08:24:22;1.60;;;1.20;;
1751;SDS011;873;47.696;8.068;2023-06-22T08:26:51;2.30;;;1.00;;
1751;SDS011;873;47.696;8.068;2023-06-22T08:29:19;1.33;;;1.23;;
1751;SDS011;873;47.696;8.068;2023-06-22T08:31:45;1.13;;;1.00;;
1751;SDS011;873;47.696;8.068;2023-06-22T08:34:10;2.90;;;1.60;;
1751;SDS011;873;47.696;8.068;2023-06-22T08:36:36;1.20;;;1.10;;
1751;SDS011;873;47.696;8.068;2023-06-22T08:39:09;1.90;;;1.20;;
1751;SDS011;873;47.696;8.068;2023-06-22T08:41:35;2.40;;;1.20;;
1751;SDS011;873;47.696;8.068;2023-06-22T08:44:00;1.33;;;0.90;;
1751;SDS011;873;47.696;8.068;2023-06-22T08:46:27;1.70;;;1.00;;
1751;SDS011;873;47.696;8.068;2023-06-22T08:48:57;0.93;;;0.70;;
1751;SDS011;873;47.696;8.068;2023-06-22T08:51:23;1.83;;;1.03;;
1751;SDS011;873;47.696;8.068;2023-06-22T08:53:49;1.73;;;0.90;;
1751;SDS011;873;47.696;8.068;2023-06-22T08:56:14;1.33;;;0.90;;
1751;SDS011;873;47.696;8.068;2023-06-22T08:58:40;2.30;;;1.00;;
1751;SDS011;873;47.696;8.068;2023-06-22T09:01:05;2.07;;;1.00;;
1751;SDS011;873;47.696;8.068;2023-06-22T09:03:31;1.10;;;1.00;;
1751;SDS011;873;47.696;8.068;2023-06-22T09:05:58;1.33;;;1.23;;
1751;SDS011;873;47.696;8.068;2023-06-22T09:08:24;2.03;;;1.17;;
1751;SDS011;873;47.696;8.068;2023-06-22T09:10:49;1.67;;;1.27;;
1751;SDS011;873;47.696;8.068;2023-06-22T09:13:15;1.93;;;1.17;;
1751;SDS011;873;47.696;8.068;2023-06-22T09:15:40;3.43;;;1.47;;
1751;SDS011;873;47.696;8.068;2023-06-22T09:18:06;2.03;;;1.40;;
1751;SDS011;873;47.696;8.068;2023-06-22T09:20:31;2.80;;;1.50;;
1751;SDS011;873;47.696;8.068;2023-06-22T09:22:57;2.43;;;1.50;;
1751;SDS011;873;47.696;8.068;2023-06-22T09:25:23;1.90;;;1.50;;
1751;SDS011;873;47.696;8.068;2023-06-22T09:27:48;3.50;;;1.37;;
1751;SDS011;873;47.696;8.068;2023-06-22T09:30:14;1.80;;;1.30;;
1751;SDS011;873;47.696;8.068;2023-06-22T09:32:39;2.73;;;1.63;;
1751;SDS011;873;47.696;8.068;2023-06-22T09:35:05;1.77;;;1.67;;
1751;SDS011;873;47.696;8.068;2023-06-22T09:37:32;2.90;;;2.10;;
1751;SDS011;873;47.696;8.068;2023-06-22T09:39:57;1.60;;;1.50;;
1751;SDS011;873;47.696;8.068;2023-06-22T09:42:23;3.43;;;1.77;;
1751;SDS011;873;47.696;8.068;2023-06-22T09:44:48;2.10;;;1.90;;
1751;SDS011;873;47.696;8.068;2023-06-22T09:47:14;2.53;;;1.67;;
1751;SDS011;873;47.696;8.068;2023-06-22T09:49:39;3.10;;;1.70;;
1751;SDS011;873;47.696;8.068;2023-06-22T09:52:05;4.07;;;1.60;;
1751;SDS011;873;47.696;8.068;2023-06-22T09:54:31;2.70;;;1.63;;
1751;SDS011;873;47.696;8.068;2023-06-22T09:56:56;1.97;;;1.40;;
1751;SDS011;873;47.696;8.068;2023-06-22T09:59:22;1.83;;;1.67;;
1751;SDS011;873;47.696;8.068;2023-06-22T10:01:47;1.70;;;1.50;;
1751;SDS011;873;47.696;8.068;2023-06-22T10:04:13;2.30;;;1.67;;
1751;SDS011;873;47.696;8.068;2023-06-22T10:06:38;3.07;;;1.73;;
1751;SDS011;873;47.696;8.068;2023-06-22T10:09:06;2.10;;;1.70;;
1751;SDS011;873;47.696;8.068;2023-06-22T10:11:32;3.00;;;2.20;;
1751;SDS011;873;47.696;8.068;2023-06-22T10:14:00;2.83;;;1.67;;
1751;SDS011;873;47.696;8.068;2023-06-22T10:16:31;2.67;;;1.80;;
1751;SDS011;873;47.696;8.068;2023-06-22T10:18:56;3.53;;;2.17;;
1751;SDS011;873;47.696;8.068;2023-06-22T10:21:22;1.87;;;1.77;;
1751;SDS011;873;47.696;8.068;2023-06-22T10:23:48;2.13;;;1.60;;
1751;SDS011;873;47.696;8.068;2023-06-22T10:26:13;3.00;;;2.13;;
1751;SDS011;873;47.696;8.068;2023-06-22T10:28:39;3.87;;;2.27;;
1751;SDS011;873;47.696;8.068;2023-06-22T10:31:04;2.07;;;1.83;;
1751;SDS011;873;47.696;8.068;2023-06-22T10:33:30;2.70;;;2.10;;
1751;SDS011;873;47.696;8.068;2023-06-22T10:35:55;2.60;;;1.73;;
1751;SDS011;873;47.696;8.068;2023-06-22T10:38:21;2.03;;;1.67;;
1751;SDS011;873;47.696;8.068;2023-06-22T10:40:46;2.10;;;1.87;;
1751;SDS011;873;47.696;8.068;2023-06-22T10:43:12;2.93;;;2.17;;
1751;SDS011;873;47.696;8.068;2023-06-22T10:45:37;2.43;;;1.63;;
1751;SDS011;873;47.696;8.068;2023-06-22T10:48:03;2.43;;;1.90;;
1751;SDS011;873;47.696;8.068;2023-06-22T10:50:29;3.80;;;2.43;;
1751;SDS011;873;47.696;8.068;2023-06-22T10:52:54;2.57;;;2.20;;
1751;SDS011;873;47.696;8.068;2023-06-22T10:55:20;2.17;;;1.90;;
1751;SDS011;873;47.696;8.068;2023-06-22T10:57:46;2.47;;;1.93;;
1751;SDS011;873;47.696;8.068;2023-06-22T11:00:12;2.07;;;1.77;;
1751;SDS011;873;47.696;8.068;2023-06-22T11:02:39;2.97;;;2.10;;
1751;SDS011;873;47.696;8.068;2023-06-22T11:05:04;2.53;;;2.00;;
1751;SDS011;873;47.696;8.068;2023-06-22T11:07:30;3.47;;;2.27;;
1751;SDS011;873;47.696;8.068;2023-06-22T11:09:57;2.90;;;1.63;;
1751;SDS011;873;47.696;8.068;2023-06-22T11:12:23;1.93;;;1.50;;
1751;SDS011;873;47.696;8.068;2023-06-22T11:14:48;2.13;;;1.93;;
1751;SDS011;873;47.696;8.068;2023-06-22T11:17:16;2.17;;;1.97;;
1751;SDS011;873;47.696;8.068;2023-06-22T11:19:44;3.10;;;2.10;;
1751;SDS011;873;47.696;8.068;2023-06-22T11:22:10;2.57;;;1.70;;
1751;SDS011;873;47.696;8.068;2023-06-22T11:24:35;1.80;;;1.53;;
1751;SDS011;873;47.696;8.068;2023-06-22T11:27:01;2.17;;;1.90;;
1751;SDS011;873;47.696;8.068;2023-06-22T11:29:27;2.27;;;1.87;;
1751;SDS011;873;47.696;8.068;2023-06-22T11:31:52;2.47;;;2.07;;
1751;SDS011;873;47.696;8.068;2023-06-22T11:34:18;6.27;;;2.40;;
1751;SDS011;873;47.696;8.068;2023-06-22T11:36:44;2.57;;;2.20;;
1751;SDS011;873;47.696;8.068;2023-06-22T11:39:10;2.23;;;1.97;;
1751;SDS011;873;47.696;8.068;2023-06-22T11:41:36;2.30;;;1.70;;
1751;SDS011;873;47.696;8.068;2023-06-22T11:44:01;2.43;;;2.03;;
1751;SDS011;873;47.696;8.068;2023-06-22T11:46:29;3.23;;;1.80;;
1751;SDS011;873;47.696;8.068;2023-06-22T11:48:55;1.90;;;1.57;;
1751;SDS011;873;47.696;8.068;2023-06-22T11:51:20;2.27;;;1.63;;
1751;SDS011;873;47.696;8.068;2023-06-22T11:53:46;1.10;;;1.00;;
1751;SDS011;873;47.696;8.068;2023-06-22T11:56:11;1.70;;;1.30;;
1751;SDS011;873;47.696;8.068;2023-06-22T11:58:37;1.17;;;1.07;;
1751;SDS011;873;47.696;8.068;2023-06-22T12:01:02;4.23;;;1.10;;
1751;SDS011;873;47.696;8.068;2023-06-22T12:03:28;0.93;;;0.73;;
1751;SDS011;873;47.696;8.068;2023-06-22T12:05:55;1.60;;;0.90;;
1751;SDS011;873;47.696;8.068;2023-06-22T12:08:20;1.53;;;0.93;;
1751;SDS011;873;47.696;8.068;2023-06-22T12:10:47;1.30;;;0.77;;
1751;SDS011;873;47.696;8.068;2023-06-22T12:13:15;0.60;;;0.60;;
1751;SDS011;873;47.696;8.068;2023-06-22T12:15:40;0.77;;;0.70;;
1751;SDS011;873;47.696;8.068;2023-06-22T12:18:06;1.53;;;1.07;;
1751;SDS011;873;47.696;8.068;2023-06-22T12:20:31;1.53;;;1.03;;
1751;SDS011;873;47.696;8.068;2023-06-22T12:22:58;0.77;;;0.70;;
1751;SDS011;873;47.696;8.068;2023-06-22T12:25:24;2.63;;;1.20;;
1751;SDS011;873;47.696;8.068;2023-06-22T12:27:50;1.00;;;0.83;;
1751;SDS011;873;47.696;8.068;2023-06-22T12:30:15;0.93;;;0.80;;
1751;SDS011;873;47.696;8.068;2023-06-22T12:32:41;1.10;;;0.77;;
1751;SDS011;873;47.696;8.068;2023-06-22T12:35:07;1.70;;;0.80;;
1751;SDS011;873;47.696;8.068;2023-06-22T12:37:37;1.40;;;1.23;;
1751;SDS011;873;47.696;8.068;2023-06-22T12:40:03;1.57;;;0.80;;
1751;SDS011;873;47.696;8.068;2023-06-22T12:42:32;1.33;;;0.50;;
1751;SDS011;873;47.696;8.068;2023-06-22T12:44:57;1.57;;;0.90;;
1751;SDS011;873;47.696;8.068;2023-06-22T12:47:23;3.13;;;1.00;;
1751;SDS011;873;47.696;8.068;2023-06-22T12:49:48;1.67;;;0.80;;
1751;SDS011;873;47.696;8.068;2023-06-22T12:52:14;0.87;;;0.80;;
1751;SDS011;873;47.696;8.068;2023-06-22T12:54:40;1.13;;;0.80;;
1751;SDS011;873;47.696;8.068;2023-06-22T12:57:06;1.37;;;0.70;;
1751;SDS011;873;47.696;8.068;2023-06-22T12:59:31;1.20;;;0.50;;
1751;SDS011;873;47.696;8.068;2023-06-22T13:01:57;1.37;;;0.90;;
1751;SDS011;873;47.696;8.068;2023-06-22T13:04:22;1.80;;;0.80;;
1751;SDS011;873;47.696;8.068;2023-06-22T13:06:48;2.30;;;1.00;;
1751;SDS011;873;47.696;8.068;2023-06-22T13:09:14;1.50;;;0.90;;
1751;SDS011;873;47.696;8.068;2023-06-22T13:11:40;1.63;;;0.80;;
1751;SDS011;873;47.696;8.068;2023-06-22T13:14:07;2.00;;;1.10;;
1751;SDS011;873;47.696;8.068;2023-06-22T13:16:33;3.07;;;0.80;;
1751;SDS011;873;47.696;8.068;2023-06-22T13:18:58;1.30;;;0.90;;
1751;SDS011;873;47.696;8.068;2023-06-22T13:21:24;1.53;;;0.90;;
1751;SDS011;873;47.696;8.068;2023-06-22T13:23:50;1.73;;;1.30;;
1751;SDS011;873;47.696;8.068;2023-06-22T13:26:15;1.30;;;0.70;;
1751;SDS011;873;47.696;8.068;2023-06-22T13:28:41;3.27;;;0.80;;
1751;SDS011;873;47.696;8.068;2023-06-22T13:31:06;1.50;;;1.20;;
1751;SDS011;873;47.696;8.068;2023-06-22T13:33:32;1.30;;;1.17;;
1751;SDS011;873;47.696;8.068;2023-06-22T13:35:57;2.07;;;1.37;;
1751;SDS011;873;47.696;8.068;2023-06-22T13:38:23;2.17;;;1.50;;
1751;SDS011;873;47.696;8.068;2023-06-22T13:40:49;4.90;;;1.93;;
1751;SDS011;873;47.696;8.068;2023-06-22T13:43:14;2.30;;;1.17;;
1751;SDS011;873;47.696;8.068;2023-06-22T13:45:41;2.53;;;1.57;;
1751;SDS011;873;47.696;8.068;2023-06-22T13:48:07;1.63;;;1.33;;
1751;SDS011;873;47.696;8.068;2023-06-22T13:50:33;3.00;;;1.60;;
1751;SDS011;873;47.696;8.068;2023-06-22T13:52:58;2.67;;;2.23;;
1751;SDS011;873;47.696;8.068;2023-06-22T13:55:24;5.20;;;1.83;;
1751;SDS011;873;47.696;8.068;2023-06-22T13:57:49;2.30;;;1.60;;
1751;SDS011;873;47.696;8.068;2023-06-22T14:00:16;2.27;;;1.30;;
1751;SDS011;873;47.696;8.068;2023-06-22T14:02:42;2.13;;;1.93;;
1751;SDS011;873;47.696;8.068;2023-06-22T14:05:08;1.80;;;1.70;;
1751;SDS011;873;47.696;8.068;2023-06-22T14:07:34;2.07;;;1.37;;
1751;SDS011;873;47.696;8.068;2023-06-22T14:10:00;1.73;;;1.53;;
1751;SDS011;873;47.696;8.068;2023-06-22T14:12:27;1.87;;;1.57;;
1751;SDS011;873;47.696;8.068;2023-06-22T14:14:53;2.00;;;1.40;;
1751;SDS011;873;47.696;8.068;2023-06-22T14:17:19;2.07;;;1.20;;
1751;SDS011;873;47.696;8.068;2023-06-22T14:19:49;2.57;;;2.00;;
1751;SDS011;873;47.696;8.068;2023-06-22T14:22:19;2.43;;;1.27;;
1751;SDS011;873;47.696;8.068;2023-06-22T14:24:45;2.23;;;0.90;;
1751;SDS011;873;47.696;8.068;2023-06-22T14:27:11;2.30;;;1.30;;
1751;SDS011;873;47.696;8.068;2023-06-22T14:29:36;1.77;;;1.30;;
1751;SDS011;873;47.696;8.068;2023-06-22T14:32:02;1.13;;;1.03;;
1751;SDS011;873;47.696;8.068;2023-06-22T14:34:29;1.43;;;1.30;;
1751;SDS011;873;47.696;8.068;2023-06-22T14:36:55;1.80;;;1.20;;
1751;SDS011;873;47.696;8.068;2023-06-22T14:39:20;1.27;;;1.17;;
1751;SDS011;873;47.696;8.068;2023-06-22T14:41:46;1.27;;;1.03;;
1751;SDS011;873;47.696;8.068;2023-06-22T14:44:11;1.00;;;0.80;;
1751;SDS011;873;47.696;8.068;2023-06-22T14:46:37;2.10;;;1.33;;
1751;SDS011;873;47.696;8.068;2023-06-22T14:49:02;1.90;;;1.07;;
1751;SDS011;873;47.696;8.068;2023-06-22T14:51:28;2.27;;;1.20;;
1751;SDS011;873;47.696;8.068;2023-06-22T14:53:53;1.60;;;0.80;;
1751;SDS011;873;47.696;8.068;2023-06-22T14:56:19;1.17;;;1.10;;
1751;SDS011;873;47.696;8.068;2023-06-22T14:58:44;1.77;;;1.30;;
1751;SDS011;873;47.696;8.068;2023-06-22T15:01:11;4.40;;;1.30;;
1751;SDS011;873;47.696;8.068;2023-06-22T15:03:37;0.90;;;0.80;;
1751;SDS011;873;47.696;8.068;2023-06-22T15:06:03;3.67;;;1.23;;
1751;SDS011;873;47.696;8.068;2023-06-22T15:08:29;2.03;;;1.20;;
1751;SDS011;873;47.696;8.068;2023-06-22T15:10:54;3.27;;;1.50;;
1751;SDS011;873;47.696;8.068;2023-06-22T15:13:20;3.10;;;1.30;;
1751;SDS011;873;47.696;8.068;2023-06-22T15:15:47;1.67;;;0.97;;
1751;SDS011;873;47.696;8.068;2023-06-22T15:18:14;2.20;;;1.27;;
1751;SDS011;873;47.696;8.068;2023-06-22T15:20:41;1.70;;;1.30;;
1751;SDS011;873;47.696;8.068;2023-06-22T15:23:09;1.40;;;1.10;;
1751;SDS011;873;47.696;8.068;2023-06-22T15:25:35;2.80;;;1.00;;
1751;SDS011;873;47.696;8.068;2023-06-22T15:28:01;2.07;;;1.20;;
1751;SDS011;873;47.696;8.068;2023-06-22T15:30:27;1.87;;;1.27;;
1751;SDS011;873;47.696;8.068;2023-06-22T15:32:54;1.20;;;1.03;;